createdAt,value
2023-04-28T00:00:54.260Z,96974.94
2023-04-28T00:03:42.911Z,96965.69
2023-04-28T00:06:32.010Z,96965.38
2023-04-28T00:09:20.697Z,96966.09
2023-04-28T00:12:09.059Z,96962.13
2023-04-28T00:14:58.809Z,96960.53
2023-04-28T00:17:47.352Z,96955.16
2023-04-28T00:20:35.758Z,96953.81
2023-04-28T00:23:24.173Z,96950.81
2023-04-28T00:26:12.619Z,96950.53
2023-04-28T00:29:02.988Z,96948.50
2023-04-28T00:31:52.861Z,96944.22
2023-04-28T00:34:41.724Z,96952.56
2023-04-28T00:37:30.100Z,96941.03
2023-04-28T00:40:18.558Z,96934.66
2023-04-28T00:43:07.092Z,96927.69
2023-04-28T00:45:55.673Z,96936.31
2023-04-28T00:48:45.458Z,96940.38
2023-04-28T00:51:34.422Z,96939.06
2023-04-28T00:54:22.965Z,96931.63
2023-04-28T00:57:11.587Z,96925.16
2023-04-28T00:59:59.969Z,96931.03
2023-04-28T01:02:48.492Z,96927.25
2023-04-28T01:05:41.289Z,96925.16
2023-04-28T01:08:29.794Z,96921.44
2023-04-28T01:11:18.809Z,96909.13
2023-04-28T01:14:42.337Z,96915.88
2023-04-28T01:17:30.915Z,96915.63
2023-04-28T01:20:19.572Z,96923.41
2023-04-28T01:23:13.275Z,96920.00
2023-04-28T01:26:03.476Z,96906.81
2023-04-28T01:28:51.913Z,96903.34
2023-04-28T01:31:41.299Z,96904.16
2023-04-28T01:34:29.806Z,96895.00
2023-04-28T01:37:18.243Z,96901.16
2023-04-28T01:40:08.135Z,96897.97
2023-04-28T01:42:57.877Z,96898.19
2023-04-28T01:45:46.266Z,96895.00
2023-04-28T01:48:34.660Z,96901.16
2023-04-28T01:51:23.066Z,96902.22
2023-04-28T01:54:11.418Z,96903.84
2023-04-28T01:57:02.453Z,96910.28
2023-04-28T01:59:53.587Z,96908.72
2023-04-28T02:02:42.189Z,96901.75
2023-04-28T02:05:30.655Z,96904.44
2023-04-28T02:08:18.970Z,96910.34
2023-04-28T02:11:07.384Z,96904.72
2023-04-28T02:13:56.078Z,96908.72
2023-04-28T02:16:45.831Z,96912.47
2023-04-28T02:19:34.194Z,96907.59
2023-04-28T02:22:22.568Z,96893.97
2023-04-28T02:25:11.212Z,96894.78
2023-04-28T02:28:00.327Z,96891.03
2023-04-28T02:30:48.771Z,96895.00
2023-04-28T02:33:39.888Z,96881.59
2023-04-28T02:36:28.828Z,96869.59
2023-04-28T02:39:17.255Z,96874.34
2023-04-28T02:42:05.790Z,96872.19
2023-04-28T02:44:54.137Z,96866.81
2023-04-28T02:47:42.834Z,96868.13
2023-04-28T02:50:32.616Z,96874.78
2023-04-28T02:53:21.249Z,96876.38
2023-04-28T02:56:10.066Z,96887.31
2023-04-28T02:58:58.617Z,96899.00
2023-04-28T03:01:47.296Z,96890.06
2023-04-28T03:04:35.887Z,96893.56
2023-04-28T03:07:25.679Z,96884.94
2023-04-28T03:10:14.873Z,96886.53
2023-04-28T03:13:03.478Z,96883.19
2023-04-28T03:15:52.565Z,96868.41
2023-04-28T03:18:40.983Z,96862.47
2023-04-28T03:21:29.746Z,96859.72
2023-04-28T03:24:19.507Z,96857.53
2023-04-28T03:27:08.019Z,96856.97
2023-04-28T03:29:58.344Z,96847.81
2023-04-28T03:32:46.734Z,96849.41
2023-04-28T03:35:35.188Z,96850.22
2023-04-28T03:38:23.597Z,96846.16
2023-04-28T03:41:13.622Z,96850.44
2023-04-28T03:44:23.483Z,96838.59
2023-04-28T03:47:13.592Z,96849.06
2023-04-28T03:50:02.271Z,96861.19
2023-04-28T03:52:50.870Z,96856.09
2023-04-28T03:55:39.813Z,96846.75
2023-04-28T03:58:29.542Z,96854.50
2023-04-28T04:01:17.957Z,96857.41
2023-04-28T04:04:07.084Z,96858.69
2023-04-28T04:06:56.094Z,96845.81
2023-04-28T04:09:45.057Z,96831.09
2023-04-28T04:12:33.424Z,96838.66
2023-04-28T04:15:23.219Z,96841.81
2023-04-28T04:18:11.822Z,96842.09
2023-04-28T04:21:20.209Z,96828.06
2023-04-28T04:24:10.779Z,96845.09
2023-04-28T04:26:59.698Z,96841.25
2023-04-28T04:29:55.313Z,96853.25
2023-04-28T04:32:45.103Z,96845.00
2023-04-28T04:35:33.856Z,96839.41
2023-04-28T04:38:22.229Z,96837.53
2023-04-28T04:41:10.635Z,96840.13
2023-04-28T04:43:59.001Z,96842.16
2023-04-28T04:46:52.313Z,96840.19
2023-04-28T04:49:42.615Z,96847.16
2023-04-28T04:52:31.138Z,96851.91
2023-04-28T04:55:19.917Z,96855.91
2023-04-28T04:58:08.482Z,96846.97
2023-04-28T05:01:05.789Z,96848.78
2023-04-28T05:03:54.557Z,96835.88
2023-04-28T05:06:45.083Z,96825.31
2023-04-28T05:09:34.874Z,96830.69
2023-04-28T05:12:23.251Z,96824.25
2023-04-28T05:15:12.526Z,96819.38
2023-04-28T05:18:11.037Z,96810.03
2023-04-28T05:20:59.565Z,96810.03
2023-04-28T05:23:50.037Z,96803.56
2023-04-28T05:26:38.483Z,96803.09
2023-04-28T05:29:30.523Z,96808.03
2023-04-28T05:32:18.934Z,96804.88
2023-04-28T05:35:08.123Z,96800.47
2023-04-28T05:37:56.673Z,96786.00
2023-04-28T05:40:46.448Z,96787.22
2023-04-28T05:43:34.937Z,96811.06
2023-04-28T05:46:30.801Z,96813.22
2023-04-28T05:49:21.153Z,96819.09
2023-04-28T05:52:09.552Z,96826.38
2023-04-28T05:54:58.156Z,96834.50
2023-04-28T05:57:53.171Z,96825.56
2023-04-28T06:00:42.096Z,96821.69
2023-04-28T06:03:30.661Z,96825.38
2023-04-28T06:06:19.209Z,96822.19
2023-04-28T06:09:07.919Z,96819.66
2023-04-28T06:11:56.424Z,96817.16
2023-04-28T06:14:46.333Z,96804.53
2023-04-28T06:17:35.167Z,96817.69
2023-04-28T06:20:23.574Z,96807.13
2023-04-28T06:23:12.020Z,96803.34
2023-04-28T06:26:05.528Z,96805.25
2023-04-28T06:28:53.961Z,96812.50
2023-04-28T06:31:43.729Z,96808.72
2023-04-28T06:34:32.871Z,96815.69
2023-04-28T06:37:21.274Z,96808.72
2023-04-28T06:40:10.931Z,96811.69
2023-04-28T06:43:02.688Z,96811.91
2023-04-28T06:46:05.120Z,96803.75
2023-04-28T06:48:54.818Z,96809.31
2023-04-28T06:51:43.324Z,96811.72
2023-04-28T06:54:32.054Z,96830.44
2023-04-28T06:57:21.133Z,96843.59
2023-04-28T07:00:11.943Z,96842.88
2023-04-28T07:03:00.475Z,96839.38
2023-04-28T07:05:50.455Z,96834.03
2023-04-28T07:08:38.809Z,96835.78
2023-04-28T07:11:27.165Z,96842.03
2023-04-28T07:14:15.790Z,96835.59
2023-04-28T07:17:04.351Z,96833.19
2023-04-28T07:19:52.752Z,96844.63
2023-04-28T07:22:42.569Z,96840.75
2023-04-28T07:25:31.138Z,96845.53
2023-04-28T07:28:20.414Z,96854.28
2023-04-28T07:31:08.876Z,96851.31
2023-04-28T07:33:57.763Z,96844.75
2023-04-28T07:36:46.387Z,96843.66
2023-04-28T07:39:36.181Z,96839.56
2023-04-28T07:42:24.640Z,96844.66
2023-04-28T07:45:13.950Z,96853.91
2023-04-28T07:48:02.380Z,96853.19
2023-04-28T07:50:50.848Z,96850.72
2023-04-28T07:53:39.194Z,96855.88
2023-04-28T07:56:28.910Z,96857.59
2023-04-28T07:59:17.251Z,96850.72
2023-04-28T08:02:06.126Z,96848.22
2023-04-28T08:04:54.727Z,96840.84
2023-04-28T08:07:43.309Z,96831.00
2023-04-28T08:10:31.687Z,96828.72
2023-04-28T08:13:21.476Z,96823.72
2023-04-28T08:16:09.921Z,96828.88
2023-04-28T08:18:59.043Z,96811.78
2023-04-28T08:21:47.519Z,96810.88
2023-04-28T08:24:36.112Z,96807.88
2023-04-28T08:27:25.807Z,96807.06
2023-04-28T08:30:15.577Z,96799.13
2023-04-28T08:33:04.061Z,96797.94
2023-04-28T08:35:52.562Z,96794.56
2023-04-28T08:38:40.974Z,96794.22
2023-04-28T08:41:30.009Z,96787.72
2023-04-28T08:44:18.825Z,96798.19
2023-04-28T08:47:14.250Z,96793.84
2023-04-28T08:50:04.917Z,96789.84
2023-04-28T08:52:53.798Z,96783.59
2023-04-28T08:55:42.447Z,96784.75
2023-04-28T08:58:30.811Z,96794.78
2023-04-28T09:01:19.237Z,96791.06
2023-04-28T09:04:12.662Z,96785.09
2023-04-28T09:07:02.746Z,96773.09
2023-04-28T09:09:51.485Z,96771.97
2023-04-28T09:12:40.002Z,96768.66
2023-04-28T09:15:32.679Z,96771.38
2023-04-28T09:18:22.140Z,96767.16
2023-04-28T09:21:13.374Z,96763.22
2023-04-28T09:24:01.809Z,96755.00
2023-04-28T09:26:52.556Z,96753.91
2023-04-28T09:29:53.888Z,96753.72
2023-04-28T09:32:42.917Z,96753.75
2023-04-28T09:35:41.001Z,96739.69
2023-04-28T09:38:30.845Z,96749.19
2023-04-28T09:41:19.209Z,96743.81
2023-04-28T09:44:15.327Z,96743.03
2023-04-28T09:47:22.261Z,96724.13
2023-04-28T09:50:14.603Z,96725.09
2023-04-28T09:53:04.156Z,96724.31
2023-04-28T09:55:56.028Z,96735.38
2023-04-28T09:58:45.684Z,96732.69
2023-04-28T10:01:37.572Z,96727.16
2023-04-28T10:04:27.194Z,96736.53
2023-04-28T10:07:16.658Z,96734.00
2023-04-28T10:10:05.575Z,96729.56
2023-04-28T10:12:56.906Z,96740.53
2023-04-28T10:15:46.152Z,96731.19
2023-04-28T10:18:36.479Z,96737.84
2023-04-28T10:21:25.403Z,96740.22
2023-04-28T10:24:17.174Z,96735.75
2023-04-28T10:27:08.513Z,96730.53
2023-04-28T10:30:22.865Z,96729.91
2023-04-28T10:33:25.602Z,96729.09
2023-04-28T10:36:50.923Z,96733.56
2023-04-28T10:39:39.672Z,96744.19
2023-04-28T10:42:53.390Z,96733.69
2023-04-28T10:46:06.460Z,96730.22
2023-04-28T10:48:58.675Z,96732.25
2023-04-28T10:51:47.106Z,96731.00
2023-04-28T10:54:36.382Z,96722.59
2023-04-28T10:57:24.771Z,96723.56
2023-04-28T11:00:29.229Z,96729.56
2023-04-28T11:03:47.216Z,96732.28
2023-04-28T11:06:37.474Z,96720.41
2023-04-28T11:09:50.213Z,96722.31
2023-04-28T11:13:17.365Z,96719.16
2023-04-28T11:16:06.952Z,96725.00
2023-04-28T11:19:04.530Z,96717.25
2023-04-28T11:21:55.039Z,96722.91
2023-04-28T11:24:43.607Z,96719.91
2023-04-28T11:27:33.530Z,96724.50
2023-04-28T11:30:23.007Z,96724.03
2023-04-28T11:33:11.524Z,96729.63
2023-04-28T11:36:01.750Z,96723.59
2023-04-28T11:38:50.174Z,96723.59
2023-04-28T11:41:41.174Z,96715.31
2023-04-28T11:44:30.708Z,96707.72
2023-04-28T11:47:29.922Z,96709.50
2023-04-28T11:50:18.358Z,96708.84
2023-04-28T11:53:08.325Z,96704.09
2023-04-28T11:56:08.060Z,96701.88
2023-04-28T11:59:04.589Z,96695.50
2023-04-28T12:01:54.391Z,96691.41
2023-04-28T12:04:44.149Z,96684.91
2023-04-28T12:07:42.314Z,96689.50
2023-04-28T12:10:32.120Z,96696.03
2023-04-28T12:13:20.536Z,96696.19
2023-04-28T12:16:09.726Z,96687.13
2023-04-28T12:19:00.264Z,96694.41
2023-04-28T12:22:03.072Z,96690.31
2023-04-28T12:25:05.228Z,96697.31
2023-04-28T12:28:02.885Z,96701.72
2023-04-28T12:30:51.636Z,96690.47
2023-04-28T12:33:40.616Z,96689.53
2023-04-28T12:36:29.546Z,96688.72
2023-04-28T12:39:20.026Z,96691.56
2023-04-28T12:42:08.565Z,96695.69
2023-04-28T12:44:58.624Z,96691.75
2023-04-28T12:47:47.344Z,96693.16
2023-04-28T12:50:35.930Z,96691.78
2023-04-28T12:53:24.366Z,96690.78
2023-04-28T12:56:12.803Z,96686.00
2023-04-28T12:59:02.634Z,96674.94
2023-04-28T13:01:52.587Z,96677.91
2023-04-28T13:04:43.052Z,96679.44
2023-04-28T13:07:32.172Z,96679.28
2023-04-28T13:10:22.414Z,96675.13
2023-04-28T13:13:10.921Z,96656.66
2023-04-28T13:15:59.424Z,96661.38
2023-04-28T13:18:50.056Z,96657.16
2023-04-28T13:21:39.291Z,96663.81
2023-04-28T13:24:27.887Z,96663.78
2023-04-28T13:27:16.294Z,96670.84
2023-04-28T13:30:05.545Z,96658.75
2023-04-28T13:32:55.416Z,96651.66
2023-04-28T13:35:47.094Z,96654.00
2023-04-28T13:38:35.681Z,96645.34
2023-04-28T13:41:24.114Z,96648.97
2023-04-28T13:44:12.506Z,96641.66
2023-04-28T13:47:00.937Z,96646.56
2023-04-28T13:49:50.396Z,96649.34
2023-04-28T13:52:40.131Z,96643.66
2023-04-28T13:55:28.617Z,96640.03
2023-04-28T13:58:16.979Z,96644.06
2023-04-28T14:01:05.614Z,96636.22
2023-04-28T14:03:54.389Z,96632.56
2023-04-28T14:06:42.909Z,96641.28
2023-04-28T14:09:33.386Z,96631.28
2023-04-28T14:12:21.785Z,96639.44
2023-04-28T14:15:10.668Z,96640.41
2023-04-28T14:17:59.126Z,96632.81
2023-04-28T14:20:49.098Z,96624.97
2023-04-28T14:23:38.440Z,96641.38
2023-04-28T14:26:28.409Z,96631.34
2023-04-28T14:29:16.848Z,96635.16
2023-04-28T14:32:05.394Z,96634.31
2023-04-28T14:34:53.824Z,96633.31
2023-04-28T14:37:42.491Z,96625.38
2023-04-28T14:40:31.124Z,96631.38
2023-04-28T14:43:20.958Z,96631.19
2023-04-28T14:46:09.364Z,96631.66
2023-04-28T14:48:58.458Z,96630.13
2023-04-28T14:51:47.649Z,96632.13
2023-04-28T14:54:36.181Z,96641.59
2023-04-28T14:57:25.070Z,96635.66
2023-04-28T15:00:16.281Z,96646.59
2023-04-28T15:03:05.193Z,96640.13
2023-04-28T15:05:53.892Z,96636.16
2023-04-28T15:08:42.327Z,96649.66
2023-04-28T15:11:30.968Z,96643.53
2023-04-28T15:14:19.740Z,96636.53
2023-04-28T15:17:09.848Z,96641.28
2023-04-28T15:19:58.377Z,96637.88
2023-04-28T15:22:46.928Z,96637.06
2023-04-28T15:25:35.689Z,96640.75
2023-04-28T15:28:24.042Z,96649.59
2023-04-28T15:31:12.472Z,96646.25
2023-04-28T15:34:02.355Z,96647.16
2023-04-28T15:36:53.656Z,96644.19
2023-04-28T15:39:42.510Z,96643.25
2023-04-28T15:42:31.350Z,96638.00
2023-04-28T15:45:20.836Z,96644.63
2023-04-28T15:48:10.174Z,96640.34
2023-04-28T15:50:59.926Z,96637.53
2023-04-28T15:53:50.684Z,96627.03
2023-04-28T15:56:39.044Z,96628.81
2023-04-28T15:59:27.499Z,96613.09
2023-04-28T16:02:15.954Z,96612.22
2023-04-28T16:05:05.153Z,96600.16
2023-04-28T16:07:55.125Z,96579.97
2023-04-28T16:10:44.071Z,96602.22
2023-04-28T16:13:36.939Z,96584.44
2023-04-28T16:16:25.742Z,96572.97
2023-04-28T16:19:15.791Z,96568.22
2023-04-28T16:22:04.252Z,96565.56
2023-04-28T16:24:54.287Z,96574.00
2023-04-28T16:27:42.691Z,96574.94
2023-04-28T16:30:32.698Z,96582.94
2023-04-28T16:33:21.104Z,96584.22
2023-04-28T16:36:09.598Z,96588.16
2023-04-28T16:38:57.965Z,96582.84
2023-04-28T16:41:47.701Z,96580.63
2023-04-28T16:44:36.482Z,96584.34
2023-04-28T16:47:24.930Z,96585.94
2023-04-28T16:50:14.896Z,96591.63
2023-04-28T16:53:03.382Z,96595.44
2023-04-28T16:55:51.717Z,96596.47
2023-04-28T16:58:41.641Z,96601.44
2023-04-28T17:01:31.725Z,96606.41
2023-04-28T17:04:20.461Z,96609.84
2023-04-28T17:07:09.459Z,96610.13
2023-04-28T17:09:57.989Z,96601.47
2023-04-28T17:12:46.399Z,96594.91
2023-04-28T17:15:36.727Z,96586.28
2023-04-28T17:18:26.120Z,96596.13
2023-04-28T17:21:15.626Z,96590.84
2023-04-28T17:24:04.187Z,96604.41
2023-04-28T17:26:52.574Z,96616.94
2023-04-28T17:29:41.435Z,96617.47
2023-04-28T17:32:31.990Z,96621.47
2023-04-28T17:35:20.610Z,96626.53
2023-04-28T17:38:09.084Z,96629.84
2023-04-28T17:40:57.435Z,96651.28
2023-04-28T17:43:46.022Z,96653.72
2023-04-28T17:46:34.470Z,96659.53
2023-04-28T17:49:25.176Z,96639.94
2023-04-28T17:52:15.537Z,96637.69
2023-04-28T17:55:03.920Z,96628.06
2023-04-28T17:57:52.401Z,96618.78
2023-04-28T18:00:40.892Z,96630.06
2023-04-28T18:03:29.465Z,96635.00
2023-04-28T18:06:22.346Z,96646.47
2023-04-28T18:09:10.755Z,96647.88
2023-04-28T18:11:59.207Z,96642.06
2023-04-28T18:14:47.656Z,96643.25
2023-04-28T18:17:36.050Z,96633.84
2023-04-28T18:20:24.622Z,96654.88
2023-04-28T18:23:14.363Z,96659.50
2023-04-28T18:26:02.943Z,96657.59
2023-04-28T18:28:51.402Z,96671.28
2023-04-28T18:31:40.163Z,96676.38
2023-04-28T18:34:28.671Z,96662.22
2023-04-28T18:37:17.179Z,96669.66
2023-04-28T18:40:07.703Z,96679.03
2023-04-28T18:42:56.391Z,96674.44
2023-04-28T18:45:45.038Z,96687.31
2023-04-28T18:48:34.264Z,96707.94
2023-04-28T18:51:23.010Z,96716.63
2023-04-28T18:54:11.515Z,96725.53
2023-04-28T18:57:01.343Z,96737.44
2023-04-28T18:59:50.062Z,96751.84
2023-04-28T19:02:38.732Z,96752.31
2023-04-28T19:05:27.308Z,96754.06
2023-04-28T19:08:15.758Z,96756.91
2023-04-28T19:11:04.224Z,96757.56
2023-04-28T19:13:54.217Z,96754.38
2023-04-28T19:16:42.762Z,96735.97
2023-04-28T19:19:31.274Z,96738.38
2023-04-28T19:22:33.034Z,96733.78
2023-04-28T19:25:21.496Z,96737.72
2023-04-28T19:28:10.856Z,96728.69
2023-04-28T19:31:00.669Z,96720.59
2023-04-28T19:33:49.144Z,96720.28
2023-04-28T19:36:37.650Z,96718.06
2023-04-28T19:39:28.665Z,96679.53
2023-04-28T19:42:17.804Z,96671.94
2023-04-28T19:45:07.678Z,96660.97
2023-04-28T19:47:58.037Z,96643.53
2023-04-28T19:50:46.679Z,96646.22
2023-04-28T19:53:38.866Z,96644.94
2023-04-28T19:56:27.356Z,96638.59
2023-04-28T19:59:15.904Z,96640.19
2023-04-28T20:02:07.792Z,96633.22
2023-04-28T20:04:57.701Z,96642.41
2023-04-28T20:07:46.227Z,96639.91
2023-04-28T20:10:34.709Z,96654.47
2023-04-28T20:13:23.278Z,96660.47
2023-04-28T20:16:11.892Z,96658.28
2023-04-28T20:19:00.327Z,96655.09
2023-04-28T20:21:50.229Z,96661.00
2023-04-28T20:24:39.533Z,96665.09
2023-04-28T20:27:28.160Z,96663.03
2023-04-28T20:30:16.744Z,96667.63
2023-04-28T20:33:05.424Z,96664.63
2023-04-28T20:35:54.012Z,96666.63
2023-04-28T20:38:44.452Z,96665.22
2023-04-28T20:41:33.392Z,96666.63
2023-04-28T20:44:22.199Z,96680.75
2023-04-28T20:47:10.984Z,96680.06
2023-04-28T20:49:59.387Z,96676.44
2023-04-28T20:52:47.952Z,96670.69
2023-04-28T20:55:37.927Z,96674.84
2023-04-28T20:58:26.504Z,96680.38
2023-04-28T21:01:15.088Z,96679.31
2023-04-28T21:04:03.647Z,96680.38
2023-04-28T21:06:53.406Z,96687.81
2023-04-28T21:09:42.218Z,96690.59
2023-04-28T21:12:32.019Z,96694.94
2023-04-28T21:15:20.651Z,96705.84
2023-04-28T21:18:09.324Z,96713.56
2023-04-28T21:20:57.741Z,96716.22
2023-04-28T21:23:46.182Z,96710.75
2023-04-28T21:26:34.707Z,96717.13
2023-04-28T21:29:24.785Z,96722.06
2023-04-28T21:32:13.348Z,96719.72
2023-04-28T21:35:01.864Z,96720.31
2023-04-28T21:37:50.204Z,96720.56
2023-04-28T21:40:38.593Z,96729.09
2023-04-28T21:43:26.992Z,96733.53
2023-04-28T21:46:18.913Z,96741.47
2023-04-28T21:49:07.715Z,96738.13
2023-04-28T21:51:56.078Z,96741.81
2023-04-28T21:54:44.474Z,96737.66
2023-04-28T21:57:33.040Z,96731.31
2023-04-28T22:00:22.854Z,96727.34
2023-04-28T22:03:14.700Z,96722.44
2023-04-28T22:06:03.502Z,96729.66
2023-04-28T22:08:51.941Z,96723.19
2023-04-28T22:11:40.350Z,96728.88
2023-04-28T22:14:40.240Z,96727.69
2023-04-28T22:17:29.625Z,96719.44
2023-04-28T22:20:19.363Z,96722.19
2023-04-28T22:23:08.177Z,96722.25
2023-04-28T22:25:59.102Z,96722.69
2023-04-28T22:28:47.530Z,96718.41
2023-04-28T22:31:35.947Z,96704.66
2023-04-28T22:34:24.520Z,96720.97
2023-04-28T22:37:14.356Z,96711.78
2023-04-28T22:40:02.750Z,96706.91
2023-04-28T22:42:51.213Z,96717.03
2023-04-28T22:45:39.617Z,96709.91
2023-04-28T22:48:27.974Z,96702.66
2023-04-28T22:51:16.917Z,96696.38
2023-04-28T22:54:06.698Z,96700.66
2023-04-28T22:56:55.063Z,96687.53
2023-04-28T22:59:43.570Z,96692.19
2023-04-28T23:02:32.089Z,96696.00
2023-04-28T23:05:20.648Z,96696.25
2023-04-28T23:08:09.014Z,96701.03
2023-04-28T23:10:58.810Z,96685.41
2023-04-28T23:13:47.185Z,96684.63
2023-04-28T23:16:36.318Z,96676.44
2023-04-28T23:19:24.942Z,96689.41
2023-04-28T23:22:13.281Z,96674.22
2023-04-28T23:25:01.780Z,96670.00
2023-04-28T23:27:51.600Z,96665.56
2023-04-28T23:30:40.190Z,96662.56
2023-04-28T23:33:29.587Z,96656.19
2023-04-28T23:36:18.564Z,96660.97
2023-04-28T23:39:07.849Z,96665.41
2023-04-28T23:41:56.178Z,96657.94
2023-04-28T23:44:46.173Z,96666.38
2023-04-28T23:47:34.610Z,96656.19
2023-04-28T23:50:23.860Z,96652.59
2023-04-28T23:53:12.651Z,96652.09
2023-04-28T23:56:01.152Z,96645.94
2023-04-28T23:58:50.173Z,96636.13
